Time;durP1;ratioP1;P1;durP2;ratioP2;P2;SDS_P1;SDS_P2;PMS_P1;PMS_P2;Temp;Humidity;BMP_temperature;BMP_pressure;BME280_temperature;BME280_humidity;BME280_pressure;Samples;Min_cycle;Max_cycle;Signal;HPM_P1;HPM_P2
2023/09/17 00:00:27;;;;;;;7.30;6.60;;;16.20;90.60;;;15.80;84.62;97832.81;5025354;28;20455;-77
2023/09/17 00:02:55;;;;;;;7.70;6.73;;;16.20;90.70;;;15.75;85.43;97840.09;5020844;28;20474;-77
2023/09/17 00:05:23;;;;;;;7.07;6.40;;;16.20;90.90;;;15.68;85.63;97834.84;5023930;28;20500;-76
2023/09/17 00:07:51;;;;;;;5.93;5.40;;;16.10;91.00;;;15.19;85.74;97768.34;5022379;28;21038;-77
2023/09/17 00:10:19;;;;;;;8.47;6.23;;;16.00;90.90;;;15.64;85.96;97833.72;5022726;28;20487;-76
2023/09/17 00:12:48;;;;;;;6.63;5.93;;;16.00;91.10;;;15.61;86.30;97836.94;5020285;28;20575;-77
2023/09/17 00:15:15;;;;;;;7.80;6.40;;;15.90;91.10;;;15.58;86.26;97844.53;5019356;28;20964;-76
2023/09/17 00:17:43;;;;;;;7.07;6.50;;;15.90;91.20;;;15.52;86.65;97847.44;5022818;28;20590;-75
2023/09/17 00:20:12;;;;;;;6.73;6.13;;;15.80;91.40;;;15.36;86.45;97817.31;5025885;28;20506;-77
2023/09/17 00:22:39;;;;;;;7.60;6.87;;;15.80;91.70;;;15.42;86.21;97826.38;5022232;28;20459;-77
2023/09/17 00:25:08;;;;;;;6.53;6.03;;;15.80;91.70;;;15.56;85.97;97849.44;5020665;28;20484;-77
2023/09/17 00:27:39;;;;;;;6.80;6.20;;;15.80;91.50;;;15.59;86.39;97845.34;5016629;28;20561;-78
2023/09/17 00:30:07;;;;;;;6.50;6.00;;;15.80;91.80;;;15.48;87.00;97841.69;5024295;28;20779;-80
2023/09/17 00:32:35;;;;;;;7.20;6.50;;;15.70;91.80;;;15.54;87.08;97839.84;5023233;28;20589;-76
2023/09/17 00:35:03;;;;;;;6.27;5.63;;;15.70;92.10;;;15.44;86.41;97824.22;5024901;28;20464;-76
2023/09/17 00:37:31;;;;;;;7.13;6.43;;;15.70;92.00;;;15.64;85.92;97850.03;5024214;28;21080;-76
2023/09/17 00:39:58;;;;;;;6.67;6.07;;;15.80;91.80;;;15.53;86.23;97839.00;5026442;28;20857;-79
2023/09/17 00:42:26;;;;;;;6.67;6.17;;;15.80;91.70;;;15.39;86.07;97835.00;5017947;28;20453;-77
2023/09/17 00:44:55;;;;;;;6.47;5.87;;;15.80;91.60;;;15.51;86.29;97849.34;5020622;28;20476;-77
2023/09/17 00:47:23;;;;;;;7.07;6.47;;;15.70;91.80;;;15.12;86.98;97794.94;5027377;28;20550;-78
2023/09/17 00:49:50;;;;;;;6.60;6.10;;;15.70;92.00;;;15.44;87.19;97848.72;5023028;28;20489;-77
2023/09/17 00:52:20;;;;;;;9.30;6.43;;;15.70;92.20;;;15.32;88.08;97842.53;5021604;28;20467;-77
2023/09/17 00:54:51;;;;;;;7.17;6.50;;;15.60;92.30;;;15.17;88.45;97843.97;5036907;28;20467;-77
2023/09/17 00:57:21;;;;;;;6.63;5.93;;;15.50;92.20;;;15.10;88.47;97840.63;5027766;28;20455;-77
2023/09/17 00:59:49;;;;;;;8.10;6.40;;;15.40;92.80;;;15.10;88.13;97837.91;5022786;28;21099;-79
2023/09/17 01:02:22;;;;;;;7.70;6.67;;;15.50;92.50;;;15.19;88.19;97841.81;5016429;28;20453;-78
2023/09/17 01:04:51;;;;;;;7.47;6.87;;;15.50;92.50;;;15.20;88.13;97835.31;5022986;28;20477;-77
2023/09/17 01:07:19;;;;;;;7.17;6.53;;;15.60;92.30;;;15.20;87.87;97834.50;5027047;28;20492;-79
2023/09/17 01:09:49;;;;;;;6.40;5.87;;;15.60;92.00;;;15.23;88.24;97829.34;5023114;28;20543;-76
2023/09/17 01:12:17;;;;;;;6.23;5.73;;;15.60;92.10;;;15.27;87.87;97830.53;5024671;28;20447;-75
2023/09/17 01:14:46;;;;;;;6.60;6.00;;;15.60;92.00;;;15.23;87.58;97829.34;5020317;28;20589;-75
2023/09/17 01:17:14;;;;;;;6.70;6.20;;;15.60;91.80;;;15.17;87.61;97818.69;5031847;28;20443;-76
2023/09/17 01:19:44;;;;;;;5.90;5.40;;;15.60;92.00;;;15.04;87.54;97793.47;5035949;28;20596;-75
2023/09/17 01:22:18;;;;;;;6.57;6.00;;;15.60;91.90;;;15.20;87.42;97818.97;5024761;28;20454;-76
2023/09/17 01:24:59;;;;;;;6.30;5.70;;;15.50;91.90;;;15.21;87.42;97814.38;5032076;28;20479;-75
2023/09/17 01:27:28;;;;;;;6.50;5.97;;;15.50;92.00;;;15.23;87.19;97818.47;5039173;28;20466;-75
2023/09/17 01:29:56;;;;;;;6.60;5.97;;;15.50;91.80;;;15.20;87.48;97815.44;5020009;28;20524;-77
2023/09/17 01:32:24;;;;;;;6.90;6.30;;;15.50;92.10;;;15.18;87.21;97806.72;5021470;28;20440;-77
2023/09/17 01:34:54;;;;;;;6.80;6.20;;;15.50;91.90;;;15.28;86.62;97804.94;5022389;28;20534;-77
2023/09/17 01:37:28;;;;;;;6.27;5.77;;;15.50;91.80;;;15.29;85.72;97812.03;5041713;28;20926;-77
2023/09/17 01:39:58;;;;;;;5.87;5.37;;;15.50;91.60;;;15.21;86.49;97815.19;5033220;28;20478;-76
2023/09/17 01:42:28;;;;;;;6.53;6.00;;;15.40;91.70;;;15.12;86.90;97805.81;5020549;28;20471;-78
2023/09/17 01:44:57;;;;;;;6.50;5.90;;;15.40;91.80;;;15.14;87.19;97803.66;5020330;28;20489;-77
2023/09/17 01:47:26;;;;;;;6.17;5.67;;;15.40;91.90;;;15.08;87.28;97818.25;5024784;28;20443;-78
2023/09/17 01:49:58;;;;;;;6.23;5.73;;;15.40;92.10;;;14.96;88.29;97800.16;5022964;28;20484;-76
2023/09/17 01:52:32;;;;;;;6.43;5.93;;;15.30;92.30;;;15.01;88.11;97810.25;5035496;28;20484;-75
2023/09/17 01:55:02;;;;;;;7.07;6.33;;;15.30;92.40;;;15.01;87.71;97816.53;5062781;28;20488;-77
2023/09/17 01:57:31;;;;;;;7.53;6.90;;;15.30;92.50;;;14.71;89.46;97812.28;5041814;28;20467;-77
2023/09/17 01:59:58;;;;;;;7.03;6.40;;;15.20;92.60;;;14.90;88.46;97820.16;5046125;28;20451;-77
2023/09/17 02:02:26;;;;;;;6.40;5.80;;;15.20;92.60;;;14.89;88.69;97820.44;5053022;28;20594;-76
2023/09/17 02:04:54;;;;;;;7.13;6.50;;;15.20;92.70;;;14.86;88.80;97821.75;5045821;28;20493;-78
2023/09/17 02:07:22;;;;;;;6.23;5.70;;;15.20;92.40;;;14.49;88.76;97757.78;5061225;28;20444;-78
2023/09/17 02:09:50;;;;;;;7.00;6.40;;;15.20;92.60;;;14.94;88.55;97821.34;5053214;28;20461;-78
2023/09/17 02:12:17;;;;;;;6.23;5.63;;;15.20;92.70;;;14.93;88.29;97822.38;5056878;28;20460;-78
2023/09/17 02:14:45;;;;;;;6.40;5.80;;;15.30;92.50;;;14.92;88.04;97828.91;5033253;28;20545;-78
2023/09/17 02:17:14;;;;;;;6.47;5.97;;;15.30;92.20;;;14.90;88.76;97831.06;5024656;28;20469;-77
2023/09/17 02:19:44;;;;;;;8.77;6.33;;;15.30;92.30;;;15.08;87.27;97826.41;5041252;28;21003;-76
2023/09/17 02:22:12;;;;;;;7.00;6.27;;;15.40;92.00;;;15.16;86.86;97828.72;5045387;28;20473;-77
2023/09/17 02:24:39;;;;;;;6.67;6.07;;;15.50;91.80;;;15.32;86.03;97831.66;5039761;28;20595;-77
2023/09/17 02:27:07;;;;;;;7.00;6.40;;;15.50;91.50;;;14.97;87.09;97809.97;5028541;28;20474;-76
2023/09/17 02:29:34;;;;;;;6.20;5.70;;;15.50;91.50;;;15.15;87.17;97837.97;5014411;28;20460;-77
2023/09/17 02:32:04;;;;;;;6.90;6.03;;;15.50;91.60;;;15.29;86.20;97844.69;5028734;28;20451;-76
2023/09/17 02:34:31;;;;;;;6.03;5.53;;;15.50;91.60;;;15.35;85.44;97842.88;5028511;28;20541;-78
2023/09/17 02:36:59;;;;;;;6.17;5.60;;;15.60;91.30;;;15.38;85.26;97838.81;5029685;28;20461;-77
2023/09/17 02:39:26;;;;;;;6.80;6.20;;;15.60;91.20;;;15.33;85.01;97836.03;5038749;28;20522;-78
2023/09/17 02:41:55;;;;;;;7.40;6.80;;;15.60;91.10;;;15.30;85.49;97840.91;5030786;28;20462;-77
2023/09/17 02:44:22;;;;;;;6.67;5.43;;;15.60;91.20;;;15.32;85.45;97837.09;5036823;28;20458;-77
2023/09/17 02:46:50;;;;;;;6.13;5.63;;;15.70;91.20;;;15.40;84.90;97836.69;5025776;28;20544;-77
2023/09/17 02:49:21;;;;;;;6.73;6.13;;;15.80;91.00;;;15.30;85.83;97834.63;5027384;28;20456;-77
2023/09/17 02:51:48;;;;;;;5.90;5.40;;;15.70;91.00;;;15.28;85.85;97843.06;5026826;28;20464;-77
2023/09/17 02:54:17;;;;;;;7.57;5.87;;;15.60;91.30;;;15.37;85.94;97845.31;5025087;28;20818;-76
2023/09/17 02:56:44;;;;;;;6.60;5.87;;;15.60;91.40;;;15.36;86.25;97851.84;5024703;28;20467;-77
2023/09/17 02:59:12;;;;;;;8.90;5.90;;;15.70;91.30;;;15.24;85.48;97825.59;5025668;28;20490;-76
2023/09/17 03:01:40;;;;;;;6.47;5.87;;;15.80;91.20;;;15.43;86.01;97866.13;5026170;28;20474;-75
2023/09/17 03:04:08;;;;;;;7.37;6.57;;;15.70;91.30;;;15.50;85.40;97855.84;5022585;28;20458;-76
2023/09/17 03:06:37;;;;;;;5.90;5.33;;;15.80;91.50;;;15.42;85.47;97859.03;5028456;28;20488;-77
2023/09/17 03:09:10;;;;;;;6.27;5.73;;;15.80;91.20;;;15.48;85.85;97860.72;5031091;28;20524;-76
2023/09/17 03:11:38;;;;;;;6.37;5.80;;;15.70;91.40;;;15.53;85.35;97866.25;5027711;28;21006;-77
2023/09/17 03:14:05;;;;;;;6.10;5.50;;;15.80;91.20;;;15.10;85.23;97802.53;5029226;28;20465;-77
2023/09/17 03:16:34;;;;;;;7.10;6.47;;;15.80;91.40;;;15.66;84.72;97870.50;5030656;28;20541;-77
2023/09/17 03:19:01;;;;;;;6.80;6.30;;;15.80;91.30;;;15.76;84.15;97863.53;5029000;28;20912;-76
2023/09/17 03:21:30;;;;;;;6.97;6.20;;;15.90;91.10;;;15.51;83.85;97830.28;5022179;28;21038;-76
2023/09/17 03:23:58;;;;;;;7.43;6.73;;;16.00;90.90;;;15.77;84.22;97863.28;5019376;28;20473;-76
2023/09/17 03:26:25;;;;;;;6.80;6.20;;;16.00;91.00;;;15.83;83.67;97873.16;5023819;28;20525;-76
2023/09/17 03:28:53;;;;;;;7.40;6.70;;;16.10;90.70;;;15.79;84.21;97869.31;5024393;28;20464;-77
2023/09/17 03:31:23;;;;;;;7.73;6.53;;;16.10;90.70;;;15.84;83.59;97866.63;5040540;28;20540;-76
2023/09/17 03:33:55;;;;;;;6.33;5.80;;;16.10;90.60;;;15.87;83.31;97868.03;5043938;28;20448;-77
2023/09/17 03:36:23;;;;;;;6.87;6.27;;;16.20;90.50;;;15.78;83.43;97862.22;5027010;28;20454;-78
2023/09/17 03:38:51;;;;;;;6.43;5.93;;;16.20;90.40;;;15.94;83.32;97868.72;5023548;28;20451;-77
2023/09/17 03:41:20;;;;;;;7.33;6.60;;;16.20;90.60;;;15.97;82.73;97865.47;5022493;28;20537;-77
2023/09/17 03:43:48;;;;;;;7.67;6.57;;;16.20;90.40;;;15.82;83.27;97868.78;5019445;28;21151;-77
2023/09/17 03:46:16;;;;;;;6.80;6.20;;;16.20;90.30;;;15.71;83.55;97872.50;5018531;28;20482;-77
2023/09/17 03:48:44;;;;;;;7.00;6.40;;;16.20;90.30;;;15.65;83.39;97862.59;5022359;28;20464;-76
2023/09/17 03:51:11;;;;;;;7.27;6.57;;;16.10;90.30;;;15.61;83.97;97862.25;5020281;28;20566;-77
2023/09/17 03:53:40;;;;;;;6.90;6.30;;;16.10;90.30;;;15.70;83.91;97862.66;5023304;28;20475;-77
2023/09/17 03:56:08;;;;;;;7.33;6.73;;;16.10;90.50;;;15.63;84.29;97862.00;5018407;28;20808;-76
2023/09/17 03:58:36;;;;;;;6.67;6.17;;;16.10;90.40;;;15.67;84.32;97868.59;5024086;28;20454;-76
2023/09/17 04:01:06;;;;;;;7.70;7.00;;;16.10;90.60;;;15.66;84.82;97864.22;5023725;28;20557;-76
2023/09/17 04:03:33;;;;;;;8.23;6.30;;;16.00;90.70;;;15.64;84.96;97867.22;5022277;28;20454;-75
2023/09/17 04:06:03;;;;;;;7.57;6.87;;;16.00;90.70;;;15.44;84.69;97840.53;5019575;28;20553;-76
2023/09/17 04:08:30;;;;;;;6.50;6.00;;;16.00;90.70;;;15.62;84.68;97853.03;5003124;28;20511;-77
2023/09/17 04:10:57;;;;;;;6.33;5.83;;;16.00;90.70;;;15.49;84.54;97873.28;5024947;28;21012;-76
2023/09/17 04:13:27;;;;;;;6.60;6.10;;;16.00;90.60;;;15.35;84.47;97844.75;5024625;28;20532;-76
2023/09/17 04:15:56;;;;;;;6.67;6.00;;;15.90;90.60;;;15.39;85.04;97864.94;5023240;28;20447;-76
2023/09/17 04:18:23;;;;;;;6.93;6.23;;;15.80;90.60;;;15.28;85.32;97850.38;5021621;28;20446;-76
2023/09/17 04:20:51;;;;;;;6.50;5.90;;;15.80;90.70;;;15.36;85.40;97854.56;5036439;28;20452;-76
2023/09/17 04:23:19;;;;;;;7.10;6.57;;;15.80;90.80;;;15.34;85.17;97871.16;5026361;28;20478;-76
2023/09/17 04:25:47;;;;;;;7.70;6.20;;;15.80;90.70;;;15.36;84.97;97858.13;5033565;28;20552;-77
2023/09/17 04:28:15;;;;;;;7.47;6.70;;;15.80;90.80;;;15.48;85.06;97871.63;5022649;28;20915;-76
2023/09/17 04:30:43;;;;;;;7.33;6.37;;;15.80;90.80;;;15.51;84.44;97862.94;5018516;28;20537;-76
2023/09/17 04:33:11;;;;;;;6.30;5.70;;;15.80;90.70;;;15.45;84.87;97863.97;5026539;28;20468;-76
2023/09/17 04:35:38;;;;;;;6.80;6.30;;;15.80;90.70;;;15.26;84.57;97837.03;5034308;28;20458;-77
2023/09/17 04:38:07;;;;;;;6.63;6.00;;;15.80;90.70;;;15.40;84.68;97861.19;5036852;28;20492;-76
2023/09/17 04:40:34;;;;;;;6.97;6.00;;;15.80;90.60;;;15.37;84.64;97856.22;5014826;28;20440;-78
2023/09/17 04:43:03;;;;;;;6.90;6.20;;;15.80;90.60;;;15.19;84.44;97827.41;5026758;28;20453;-77
2023/09/17 04:45:35;;;;;;;7.00;6.37;;;15.80;90.60;;;15.48;83.76;97879.78;5021234;28;20474;-77
2023/09/17 04:48:03;;;;;;;7.23;6.63;;;15.80;90.60;;;14.94;83.95;97785.97;5025799;28;20465;-77
2023/09/17 04:50:33;;;;;;;6.87;5.97;;;15.70;90.60;;;15.54;83.32;97867.91;5039179;28;20469;-77
2023/09/17 04:53:01;;;;;;;6.30;5.70;;;15.70;90.60;;;15.49;83.96;97867.81;5024629;28;20570;-77
2023/09/17 04:55:31;;;;;;;7.63;6.93;;;15.70;90.50;;;15.52;83.46;97870.03;5025417;28;20478;-78
2023/09/17 04:57:59;;;;;;;6.77;6.20;;;15.70;90.50;;;15.43;83.42;97850.59;5023610;28;20518;-75
2023/09/17 05:00:26;;;;;;;6.43;5.80;;;15.80;90.50;;;15.28;84.09;97853.94;5024198;28;20537;-76
2023/09/17 05:02:55;;;;;;;6.83;6.10;;;15.70;90.50;;;15.33;84.15;97860.53;5024806;28;20452;-75
2023/09/17 05:05:22;;;;;;;6.60;5.50;;;15.70;90.50;;;15.48;83.39;97868.91;5019574;28;20468;-76
2023/09/17 05:07:51;;;;;;;6.50;5.90;;;15.70;90.40;;;15.51;83.28;97867.59;5024873;28;20447;-77
2023/09/17 05:10:19;;;;;;;7.90;7.20;;;15.70;90.40;;;15.48;83.14;97877.06;5019069;28;21113;-77
2023/09/17 05:12:46;;;;;;;6.43;5.93;;;15.70;90.40;;;15.27;84.22;97865.06;5022643;28;20458;-78
2023/09/17 05:15:14;;;;;;;7.60;6.90;;;15.60;90.40;;;15.26;84.53;97877.88;5025861;28;20484;-78
2023/09/17 05:17:41;;;;;;;6.80;6.20;;;15.60;90.60;;;15.24;84.27;97869.13;5021062;28;20539;-77
2023/09/17 05:20:11;;;;;;;6.63;6.03;;;15.50;90.70;;;15.42;83.27;97883.53;5035030;28;20966;-77
2023/09/17 05:22:38;;;;;;;7.10;6.50;;;15.60;90.70;;;15.38;83.65;97879.63;5023997;28;20462;-77
2023/09/17 05:25:09;;;;;;;6.53;6.00;;;15.60;90.60;;;15.26;84.25;97875.16;5024596;28;20465;-77
2023/09/17 05:27:37;;;;;;;7.03;6.43;;;15.60;90.60;;;15.08;84.15;97859.06;5037269;28;20481;-76
2023/09/17 05:30:06;;;;;;;8.03;7.30;;;15.50;90.70;;;15.24;84.50;97880.00;5018226;28;20448;-76
2023/09/17 05:32:34;;;;;;;9.60;6.20;;;15.50;90.80;;;15.24;84.55;97885.47;5021692;28;20964;-76
2023/09/17 05:35:03;;;;;;;6.30;5.80;;;15.60;90.80;;;15.21;84.70;97888.66;5020905;28;20444;-78
2023/09/17 05:37:30;;;;;;;6.60;6.10;;;15.50;90.80;;;15.16;84.94;97891.31;5021213;28;20551;-77
2023/09/17 05:39:59;;;;;;;7.70;7.10;;;15.50;90.80;;;15.09;85.09;97888.75;5018388;28;20454;-77
2023/09/17 05:42:27;;;;;;;7.23;6.60;;;15.50;90.80;;;14.98;85.42;97893.22;5022347;28;20541;-77
2023/09/17 05:44:57;;;;;;;6.70;6.13;;;15.50;90.80;;;14.84;86.20;97887.25;5031960;28;20837;-77
2023/09/17 05:47:24;;;;;;;6.40;5.83;;;15.40;91.00;;;14.99;85.45;97900.31;5022647;28;20470;-77
2023/09/17 05:49:51;;;;;;;6.30;5.70;;;15.40;91.00;;;14.80;85.14;97853.47;5025279;28;20548;-76
2023/09/17 05:52:19;;;;;;;7.00;5.80;;;15.50;91.10;;;15.25;84.71;97914.31;5027839;28;20565;-77
2023/09/17 05:54:46;;;;;;;6.60;6.00;;;15.60;90.90;;;15.39;84.33;97911.22;5023932;28;20962;-76
2023/09/17 05:57:15;;;;;;;13.80;6.40;;;15.70;90.80;;;15.43;84.01;97905.03;5027326;28;20553;-76
2023/09/17 05:59:44;;;;;;;7.50;6.70;;;15.80;90.50;;;15.76;82.57;97901.66;5039657;28;20982;-77
2023/09/17 06:02:12;;;;;;;6.80;6.07;;;16.10;90.30;;;15.89;81.91;97905.94;5023197;28;20456;-77
2023/09/17 06:04:40;;;;;;;7.17;6.57;;;16.30;90.00;;;16.08;80.85;97904.56;5024637;28;21506;-78
2023/09/17 06:07:08;;;;;;;7.10;6.50;;;16.40;89.60;;;16.16;79.80;97888.84;5026671;28;20467;-76
2023/09/17 06:09:35;;;;;;;6.83;6.23;;;16.60;89.10;;;16.21;80.13;97894.34;5026244;28;20448;-77
2023/09/17 06:12:04;;;;;;;6.90;6.40;;;16.70;88.90;;;16.46;79.57;97903.91;5025050;28;20462;-76
2023/09/17 06:14:33;;;;;;;5.90;5.40;;;16.80;88.70;;;16.38;79.66;97902.47;5022000;28;20460;-76
2023/09/17 06:17:02;;;;;;;6.47;5.97;;;16.80;88.40;;;16.50;79.40;97905.03;5039972;28;20486;-77
2023/09/17 06:19:30;;;;;;;6.37;5.83;;;16.90;88.50;;;16.52;78.83;97917.31;5020742;28;20471;-78
2023/09/17 06:21:58;;;;;;;6.70;6.10;;;16.90;88.20;;;16.56;79.20;97910.28;5025543;28;20972;-76
2023/09/17 06:24:25;;;;;;;6.07;5.57;;;16.90;88.30;;;16.89;77.44;97912.22;5026588;28;21046;-77
2023/09/17 06:26:53;;;;;;;7.17;6.47;;;17.10;88.10;;;16.91;76.85;97910.88;5029499;28;20475;-76
2023/09/17 06:29:20;;;;;;;6.20;5.60;;;17.20;87.70;;;16.84;77.07;97902.06;5020313;28;20448;-78
2023/09/17 06:31:48;;;;;;;6.83;5.23;;;17.20;87.80;;;16.62;77.60;97892.06;5023046;28;20814;-78
2023/09/17 06:34:17;;;;;;;6.93;6.23;;;17.10;87.60;;;16.96;76.58;97915.53;5033122;28;20474;-77
2023/09/17 06:36:44;;;;;;;6.30;5.70;;;17.20;87.50;;;16.97;76.78;97926.19;5027298;28;20939;-77
2023/09/17 06:39:13;;;;;;;6.30;5.80;;;17.20;87.50;;;16.87;77.19;97926.09;5024594;28;20459;-76
2023/09/17 06:41:40;;;;;;;7.63;6.93;;;17.20;87.50;;;16.73;78.07;97922.97;5024434;28;20476;-76
2023/09/17 06:44:07;;;;;;;6.17;5.63;;;17.10;87.70;;;16.67;78.32;97905.75;5034940;28;21136;-77
2023/09/17 06:46:34;;;;;;;5.53;5.03;;;17.10;87.70;;;16.97;77.30;97919.91;5022833;28;20473;-77
2023/09/17 06:49:01;;;;;;;6.57;5.97;;;17.20;87.60;;;17.12;76.47;97917.34;5016586;28;20454;-76
2023/09/17 06:51:31;;;;;;;7.10;6.50;;;17.40;87.40;;;17.26;75.96;97925.91;5018708;28;20466;-77
2023/09/17 06:53:58;;;;;;;6.57;6.00;;;17.50;87.20;;;17.48;74.34;97891.38;5020040;28;20451;-76
2023/09/17 06:56:25;;;;;;;6.57;6.07;;;17.80;87.00;;;17.65;74.35;97919.34;5024186;28;20455;-75
2023/09/17 06:58:53;;;;;;;6.40;5.90;;;17.90;86.70;;;17.87;73.70;97925.75;5021812;28;20456;-76
2023/09/17 07:01:20;;;;;;;6.50;5.43;;;18.10;86.50;;;17.93;73.28;97924.69;5038268;28;20669;-76
2023/09/17 07:03:48;;;;;;;6.53;5.90;;;18.20;86.10;;;17.82;73.93;97935.56;5023959;28;20472;-74
2023/09/17 07:06:16;;;;;;;6.40;5.80;;;18.30;86.00;;;18.20;72.37;97929.19;5020328;28;20475;-74
2023/09/17 07:08:45;;;;;;;6.50;5.57;;;18.40;85.90;;;18.50;70.80;97933.13;5021809;28;20506;-76
2023/09/17 07:11:12;;;;;;;6.17;5.57;;;18.70;85.30;;;17.83;71.75;97874.38;5026704;28;20455;-82
2023/09/17 07:13:40;;;;;;;6.90;6.20;;;18.80;84.90;;;18.23;71.51;97940.44;5035374;28;20548;-77
2023/09/17 07:16:07;;;;;;;6.17;5.77;;;18.90;84.60;;;18.21;72.02;97933.59;5029586;28;20524;-77
2023/09/17 07:18:35;;;;;;;6.10;5.60;;;18.80;84.80;;;18.37;71.55;97929.81;5019170;28;20465;-74
2023/09/17 07:21:03;;;;;;;7.10;5.60;;;18.90;84.80;;;18.36;72.02;97932.81;5020292;28;20549;-75
2023/09/17 07:23:31;;;;;;;5.80;5.30;;;18.90;84.90;;;18.48;71.23;97918.91;5036402;28;20481;-77
2023/09/17 07:26:00;;;;;;;6.40;5.90;;;19.10;84.60;;;18.63;71.33;97921.66;5016966;28;20485;-76
2023/09/17 07:28:27;;;;;;;6.57;5.27;;;19.10;84.60;;;18.72;70.69;97901.97;5013820;28;20469;-78
2023/09/17 07:30:56;;;;;;;6.00;5.50;;;19.20;84.40;;;18.72;71.53;97921.97;5017612;28;21754;-77
2023/09/17 07:33:23;;;;;;;5.87;5.43;;;19.30;84.60;;;18.92;70.53;97912.97;5019961;28;20474;-78
2023/09/17 07:35:50;;;;;;;6.50;5.00;;;19.40;84.60;;;19.07;70.62;97927.78;5036235;28;20457;-77
2023/09/17 07:38:17;;;;;;;6.20;5.70;;;19.50;84.60;;;19.27;69.62;97913.25;5032833;28;20504;-78
2023/09/17 07:40:45;;;;;;;6.57;5.10;;;19.60;84.50;;;19.61;69.17;97934.59;5022367;28;20447;-77
2023/09/17 07:43:14;;;;;;;5.53;5.17;;;19.80;84.30;;;19.79;68.19;97924.97;5036147;28;20452;-77
2023/09/17 07:45:42;;;;;;;5.47;5.07;;;20.00;84.10;;;19.62;67.86;97870.47;5022878;28;20459;-77
2023/09/17 07:48:10;;;;;;;5.50;5.00;;;20.20;84.00;;;20.13;67.40;97917.19;5026939;28;20473;-77
2023/09/17 07:50:38;;;;;;;5.90;5.50;;;20.40;83.80;;;20.31;66.97;97930.28;5015342;28;20923;-77
2023/09/17 07:53:07;;;;;;;4.90;4.50;;;20.50;83.50;;;20.61;66.60;97931.22;5037751;28;20571;-81
2023/09/17 07:55:35;;;;;;;6.07;5.57;;;20.80;83.60;;;20.57;66.49;97930.16;5022236;28;20458;-77
2023/09/17 07:58:03;;;;;;;6.20;5.70;;;20.90;83.50;;;20.58;66.56;97917.22;5019114;28;20470;-80
2023/09/17 08:00:31;;;;;;;5.53;5.10;;;20.90;83.20;;;20.78;66.60;97927.25;5039259;28;20452;-80
2023/09/17 08:03:01;;;;;;;5.70;5.30;;;21.10;83.20;;;21.21;65.08;97924.78;5033727;28;20968;-80
2023/09/17 08:05:28;;;;;;;5.43;4.90;;;21.40;83.00;;;21.28;65.04;97929.09;5022121;28;20473;-77
2023/09/17 08:07:55;;;;;;;5.63;5.13;;;21.50;82.50;;;21.72;64.00;97919.91;5017516;28;21001;-80
2023/09/17 08:10:23;;;;;;;5.93;5.43;;;21.80;82.60;;;21.55;64.23;97927.75;5034862;28;20445;-78
2023/09/17 08:12:50;;;;;;;6.30;5.80;;;21.90;82.20;;;22.01;62.68;97921.00;5020524;28;20745;-81
2023/09/17 08:15:18;;;;;;;5.60;5.10;;;22.00;81.80;;;21.64;63.05;97865.56;5022073;28;20802;-81
2023/09/17 08:17:47;;;;;;;5.43;4.93;;;22.20;81.80;;;22.23;61.89;97909.44;5019125;28;21042;-86
2023/09/17 08:20:14;;;;;;;5.70;5.23;;;22.40;81.30;;;22.49;61.32;97928.38;5018160;28;20476;-78
2023/09/17 08:22:42;;;;;;;5.40;5.00;;;22.60;81.10;;;22.50;60.99;97913.50;5020581;28;20540;-86
2023/09/17 08:25:10;;;;;;;5.80;4.97;;;22.70;80.60;;;22.68;61.11;97927.59;5019281;28;20551;-79
2023/09/17 08:27:39;;;;;;;8.70;5.50;;;22.80;80.70;;;22.70;60.89;97923.41;5022278;28;20972;-83
2023/09/17 08:30:11;;;;;;;5.43;5.03;;;22.90;80.20;;;23.13;59.88;97933.50;5025593;28;21037;-81
2023/09/17 08:32:40;;;;;;;5.13;4.73;;;23.20;80.10;;;23.26;58.80;97939.34;5017289;28;20473;-83
2023/09/17 08:35:11;;;;;;;5.90;5.40;;;23.50;79.40;;;23.34;59.28;97935.94;5038852;28;20451;-80
2023/09/17 08:37:39;;;;;;;5.77;5.37;;;23.50;79.30;;;23.68;57.82;97939.50;5025475;28;20818;-86
2023/09/17 08:40:10;;;;;;;5.50;5.10;;;23.70;78.80;;;24.00;57.50;97935.03;5018715;28;20858;-84
2023/09/17 08:42:38;;;;;;;5.83;5.33;;;24.00;78.50;;;24.00;57.14;97935.84;5021759;28;20629;-85
2023/09/17 08:45:07;;;;;;;6.40;5.90;;;24.10;78.20;;;24.27;56.75;97938.94;5024003;28;20526;-86
2023/09/17 08:47:34;;;;;;;5.70;5.20;;;24.40;77.80;;;24.19;56.65;97937.72;5020922;28;20473;-85
2023/09/17 08:50:01;;;;;;;5.10;4.70;;;24.30;77.20;;;24.17;56.61;97942.72;5037750;28;21153;-81
2023/09/17 08:52:33;;;;;;;5.57;5.13;;;24.20;77.40;;;24.46;56.33;97941.56;5018911;28;20469;-80
2023/09/17 08:55:02;;;;;;;5.33;4.93;;;24.50;77.20;;;24.49;55.74;97935.41;5021222;28;20530;-83
2023/09/17 08:57:34;;;;;;;5.37;4.97;;;24.70;76.40;;;24.35;55.75;97934.66;5020224;28;20944;-83
2023/09/17 09:00:08;;;;;;;6.40;5.80;;;24.60;76.10;;;24.45;55.93;97934.41;5020894;28;20464;-83
2023/09/17 09:02:44;;;;;;;5.43;4.70;;;24.60;76.40;;;24.54;55.94;97931.72;5015321;28;21313;-83
2023/09/17 09:05:14;;;;;;;5.30;4.73;;;24.70;76.30;;;24.93;54.91;97916.50;5020157;28;20766;-85
2023/09/17 09:07:45;;;;;;;4.90;4.50;;;24.90;75.90;;;24.25;55.63;97922.69;5025987;28;20458;-82
2023/09/17 09:10:15;;;;;;;4.90;4.60;;;24.80;75.40;;;24.11;57.25;97935.66;5023618;28;20555;-79
2023/09/17 09:12:43;;;;;;;5.40;4.90;;;24.40;76.10;;;24.03;56.87;97934.44;5014001;28;20462;-82
2023/09/17 09:15:11;;;;;;;11.30;9.23;;;24.30;76.00;;;24.12;56.90;97932.63;5025004;28;20450;-82
2023/09/17 09:17:39;;;;;;;5.27;4.90;;;24.30;76.30;;;24.02;57.17;97944.66;5020082;28;20452;-84
2023/09/17 09:20:10;;;;;;;4.70;4.30;;;24.30;76.20;;;23.98;56.92;97946.38;5025493;28;21022;-83
2023/09/17 09:22:40;;;;;;;5.37;4.90;;;24.20;76.00;;;24.07;57.53;97942.94;5021428;28;20527;-85
2023/09/17 09:25:10;;;;;;;5.23;4.83;;;24.20;76.30;;;24.14;57.04;97940.56;5022409;28;20489;-84
2023/09/17 09:27:38;;;;;;;4.70;4.30;;;24.30;76.30;;;24.07;57.22;97940.97;5024078;28;20466;-82
2023/09/17 09:30:11;;;;;;;6.10;5.60;;;24.20;76.30;;;24.10;57.42;97934.03;5022941;28;20508;-84
2023/09/17 09:32:39;;;;;;;5.93;5.40;;;24.20;76.40;;;24.15;57.01;97925.66;5027000;28;20901;-82
2023/09/17 09:35:08;;;;;;;5.67;5.27;;;24.40;76.30;;;24.02;57.88;97936.38;5027273;28;20434;-84
2023/09/17 09:37:37;;;;;;;5.93;5.43;;;24.20;76.20;;;24.10;57.98;97940.34;5028082;28;20874;-86
2023/09/17 09:40:06;;;;;;;7.93;5.80;;;24.30;77.20;;;24.37;57.11;97930.44;5026416;28;20450;-88
2023/09/17 09:42:36;;;;;;;5.10;4.70;;;24.40;76.50;;;24.54;56.55;97935.31;5021646;28;20460;-86
2023/09/17 09:45:06;;;;;;;5.47;4.97;;;24.60;76.60;;;24.29;57.04;97929.22;5026750;28;20545;-85
2023/09/17 09:47:34;;;;;;;5.13;4.73;;;24.60;76.00;;;24.46;57.38;97945.16;5023560;28;20466;-83
2023/09/17 09:50:03;;;;;;;6.07;5.50;;;24.50;76.30;;;24.58;56.42;97938.28;5039972;28;20459;-80
2023/09/17 09:52:30;;;;;;;5.47;5.00;;;24.60;76.50;;;24.52;56.67;97940.34;5038199;28;20462;-75
2023/09/17 09:54:59;;;;;;;6.10;5.60;;;24.60;76.00;;;24.58;56.79;97943.81;5045901;28;20458;-78
2023/09/17 09:57:26;;;;;;;5.60;5.20;;;24.80;76.20;;;24.73;56.73;97939.88;5045754;28;20473;-76
2023/09/17 09:59:55;;;;;;;5.67;5.27;;;24.80;76.50;;;25.06;56.14;97947.97;5044665;28;20463;-77
2023/09/17 10:02:24;;;;;;;5.37;4.97;;;25.00;76.20;;;25.27;55.21;97936.44;5039552;28;20439;-79
2023/09/17 10:04:52;;;;;;;11.23;5.43;;;25.20;75.80;;;25.20;55.59;97936.88;5039955;28;20477;-86
2023/09/17 10:07:20;;;;;;;5.63;5.20;;;25.30;75.80;;;25.35;55.31;97938.44;5041114;28;20472;-77
2023/09/17 10:09:48;;;;;;;5.80;5.40;;;25.40;75.50;;;25.30;54.88;97933.03;5040575;28;20472;-78
2023/09/17 10:12:17;;;;;;;6.03;5.53;;;25.40;75.20;;;25.41;55.31;97930.81;5044093;28;20468;-81
2023/09/17 10:14:44;;;;;;;5.60;5.10;;;25.40;75.50;;;25.49;54.43;97921.81;5062902;28;20448;-82
2023/09/17 10:17:14;;;;;;;6.63;6.03;;;25.50;74.90;;;25.50;54.59;97925.38;5058233;28;20444;-80
2023/09/17 10:19:44;;;;;;;6.40;5.90;;;25.60;74.70;;;24.89;54.66;97876.84;5058182;28;21869;-84
2023/09/17 10:22:17;;;;;;;6.57;5.90;;;25.50;74.30;;;25.49;54.43;97915.44;5036979;28;20479;-83
2023/09/17 10:24:45;;;;;;;6.77;6.07;;;25.50;74.50;;;25.50;54.40;97917.06;5035194;28;20459;-87